Montara, CA

11:50 AM PDT on July 05, 2015 (GMT -0700)
Montara | | Change Station
CLOSE
Current Station
Personal Weather Station
Location: Montara, CA
Elevation: 150 ft
Nearby Weather Stations

Elev 150 ft 37.54 °N, 122.51 °W | Updated 6 seconds ago

Overcast
Overcast
64.8 °F
Feels Like 64.8 °F
N
4.0
Wind Variable Wind from SSE
Gusts 13.0 mph

Today
High -- | Low -- °F
--% Chance of Precip.
Yesterday
High -- | Low -- °F
Precip. -- in
5:54 AM 8:34 PM
Waning Gibbous, 83% visible
Pressure 30.02 in
Visibility 7.0 miles
Clouds Overcast 2300 ft
Dew Point 59 °F
Humidity 82%
Rainfall 0.02 in
Snow Depth Not available.
UV 4.0 out of 12
Pollen 3.30 out of 12
Air Quality Not available.
Flu Activity Not available.
METAR KHAF 051835Z AUTO 18009KT 7SM OVC023 18/15 A3002 RMK AO2

More Conditions Fewer Conditions

Pressure 30.02 in
Visibility 7.0 miles
Clouds Overcast 2300 ft
Dew Point 59 °F
Humidity 82%
Rainfall 0.02 in
Snow Depth Not available.
UV 4.0 out of 12
Pollen 3.30 out of 12
Air Quality Not available.
Flu Activity Not available.
METAR KHAF 051835Z AUTO 18009KT 7SM OVC023 18/15 A3002 RMK AO2

More Conditions Fewer Conditions

10-Day Weather Forecast

×

Almanac

Astronomy

Jul. 05, 2015 Rise Set
Actual Time
Civil Twilight
Nautical Twilight
Astronomical Twilight
Moon
Length of Visible Light
Length of Day
Tomorrow will be .
, % of the Moon is Illuminated

Today's Extremes

State Highs State Lows

Community

WunderPhotos

Upload Photos

1,835,346 photos uploaded!

WunderBlogs® & News

Nearby

Air Quality

  Air Quality AQ Index Pollutant
Not available.

Snow Depth

Station Depth Elevation

Earthquake Activity

City Distance Mag. Time & Date
Minimum magnitude displayed is 2.5.

Coastal Water Temperatures

Place Temperature

Stations

Nearby Weather Stations

Station Location Temp. Windchill Dew Point Humidity Wind Precip. Elev Updated Type